createdAt,value
2023-02-16T00:03:27.261Z,4.18
2023-02-16T00:08:28.703Z,3.10
2023-02-16T00:13:47.436Z,4.53
2023-02-16T00:18:49.097Z,3.90
2023-02-16T00:23:51.112Z,4.00
2023-02-16T00:28:55.023Z,3.65
2023-02-16T00:33:56.465Z,4.05
2023-02-16T00:38:57.892Z,4.85
2023-02-16T00:43:59.426Z,6.15
2023-02-16T00:49:00.858Z,4.85
2023-02-16T00:54:02.347Z,3.85
2023-02-16T00:59:07.409Z,5.88
2023-02-16T01:04:20.120Z,4.55
2023-02-16T01:09:40.091Z,4.03
2023-02-16T01:14:41.578Z,4.50
2023-02-16T01:19:43.108Z,5.40
2023-02-16T01:24:44.604Z,7.53
2023-02-16T01:29:46.105Z,5.13
2023-02-16T01:34:47.587Z,4.40
2023-02-16T01:39:49.436Z,7.13
2023-02-16T01:44:59.702Z,5.13
2023-02-16T01:50:14.911Z,4.28
2023-02-16T01:55:28.417Z,5.80
2023-02-16T02:00:52.064Z,4.38
2023-02-16T02:05:53.500Z,5.32
2023-02-16T02:11:20.250Z,4.07
2023-02-16T02:16:28.913Z,4.35
2023-02-16T02:22:28.195Z,5.80
2023-02-16T02:27:37.614Z,7.47
2023-02-16T02:32:45.699Z,5.75
2023-02-16T02:38:06.316Z,7.78
2023-02-16T02:43:10.874Z,7.35
2023-02-16T02:48:13.882Z,7.75
2023-02-16T02:53:16.306Z,6.07
2023-02-16T02:58:41.575Z,9.13
2023-02-16T03:03:47.788Z,8.35
2023-02-16T03:08:55.792Z,7.90
2023-02-16T03:14:05.773Z,10.30
2023-02-16T03:19:28.216Z,8.38
2023-02-16T03:24:51.777Z,8.40
2023-02-16T03:29:55.810Z,10.25
2023-02-16T03:34:57.452Z,8.95
2023-02-16T03:40:17.831Z,11.68
2023-02-16T03:45:23.112Z,13.63
2023-02-16T03:50:26.982Z,13.20
2023-02-16T03:55:28.399Z,13.18
2023-02-16T04:00:29.922Z,12.23
2023-02-16T04:05:32.490Z,13.95
2023-02-16T04:10:34.546Z,13.75
2023-02-16T04:15:36.010Z,14.95
2023-02-16T04:20:37.794Z,14.45
2023-02-16T04:25:39.207Z,13.80
2023-02-16T04:30:40.705Z,15.27
2023-02-16T04:35:42.175Z,15.38
2023-02-16T04:40:43.610Z,15.15
2023-02-16T04:45:45.025Z,17.35
2023-02-16T04:50:46.495Z,17.48
2023-02-16T04:55:49.512Z,13.43
2023-02-16T05:00:50.947Z,19.45
2023-02-16T05:05:52.355Z,18.85
2023-02-16T05:11:12.241Z,17.38
2023-02-16T05:16:13.669Z,20.40
2023-02-16T05:21:33.205Z,17.25
2023-02-16T05:26:36.776Z,18.98
2023-02-16T05:31:38.380Z,21.45
2023-02-16T05:36:39.932Z,18.55
2023-02-16T05:41:41.350Z,20.35
2023-02-16T05:46:43.182Z,33.45
2023-02-16T05:51:44.624Z,19.95
2023-02-16T05:56:50.743Z,21.73
2023-02-16T06:01:52.735Z,21.67
2023-02-16T06:06:54.594Z,22.08
2023-02-16T06:11:55.990Z,21.88
2023-02-16T06:16:58.663Z,22.65
2023-02-16T06:22:00.104Z,24.15
2023-02-16T06:27:01.527Z,22.58
2023-02-16T06:32:03.458Z,22.27
2023-02-16T06:37:04.993Z,24.63
2023-02-16T06:42:06.394Z,24.20
2023-02-16T06:47:07.790Z,24.52
2023-02-16T06:52:09.396Z,24.15
2023-02-16T06:57:11.006Z,23.80
2023-02-16T07:02:12.603Z,23.67
2023-02-16T07:07:14.160Z,25.90
2023-02-16T07:12:15.611Z,24.50
2023-02-16T07:17:17.378Z,23.92
2023-02-16T07:22:18.946Z,26.35
2023-02-16T07:27:20.343Z,25.63
2023-02-16T07:32:21.933Z,22.85
2023-02-16T07:37:23.506Z,24.30
2023-02-16T07:42:24.977Z,22.73
2023-02-16T07:47:26.890Z,20.35
2023-02-16T07:52:30.985Z,24.05
2023-02-16T07:57:32.517Z,25.08
2023-02-16T08:02:42.544Z,23.45
2023-02-16T08:07:46.597Z,23.52
2023-02-16T08:12:49.701Z,26.90
2023-02-16T08:17:51.254Z,23.98
2023-02-16T08:22:54.440Z,25.30
2023-02-16T08:27:55.878Z,25.88
2023-02-16T08:33:00.938Z,29.88
2023-02-16T08:38:02.402Z,28.15
2023-02-16T08:43:03.904Z,30.70
2023-02-16T08:48:05.452Z,30.25
2023-02-16T08:53:06.966Z,29.48
2023-02-16T08:58:08.384Z,27.48
2023-02-16T09:03:09.778Z,27.58
2023-02-16T09:08:11.359Z,28.50
2023-02-16T09:13:16.262Z,28.25
2023-02-16T09:18:18.131Z,28.13
2023-02-16T09:23:20.452Z,25.80
2023-02-16T09:28:21.878Z,21.07
2023-02-16T09:33:23.331Z,23.35
2023-02-16T09:38:25.437Z,22.45
2023-02-16T09:43:47.730Z,22.37
2023-02-16T09:48:50.906Z,21.70
2023-02-16T09:54:02.035Z,27.80
2023-02-16T09:59:18.800Z,18.58
2023-02-16T10:04:51.374Z,23.02
2023-02-16T10:09:55.152Z,23.30
2023-02-16T10:15:02.773Z,20.75
2023-02-16T10:20:18.467Z,18.40
2023-02-16T10:25:37.215Z,20.83
2023-02-16T10:30:42.937Z,17.95
2023-02-16T10:35:48.060Z,19.92
2023-02-16T10:40:49.404Z,15.57
2023-02-16T10:45:58.997Z,20.27
2023-02-16T10:51:10.854Z,18.15
2023-02-16T10:56:31.799Z,18.13
2023-02-16T11:01:38.043Z,18.05
2023-02-16T11:06:39.508Z,16.73
2023-02-16T11:11:42.810Z,18.67
2023-02-16T11:16:44.736Z,26.00
2023-02-16T11:21:52.165Z,19.42
2023-02-16T11:27:21.849Z,18.63
2023-02-16T11:32:24.135Z,18.48
2023-02-16T11:37:29.546Z,19.23
2023-02-16T11:42:40.224Z,19.67
2023-02-16T11:47:43.017Z,19.42
2023-02-16T11:57:49.002Z,20.90
2023-02-16T12:03:23.060Z,18.30
2023-02-16T12:08:36.898Z,21.90
2023-02-16T12:13:59.378Z,19.90
2023-02-16T12:19:03.786Z,22.08
2023-02-16T12:24:14.295Z,20.23
2023-02-16T12:29:34.643Z,18.77
2023-02-16T12:35:09.399Z,21.40
2023-02-16T12:40:31.991Z,18.83
2023-02-16T12:45:38.677Z,21.05
2023-02-16T12:50:42.034Z,20.58
2023-02-16T12:55:51.027Z,18.23
2023-02-16T13:00:58.507Z,20.55
2023-02-16T13:06:25.305Z,23.27
2023-02-16T13:11:56.842Z,21.55
2023-02-16T13:17:02.918Z,19.55
2023-02-16T13:22:13.651Z,19.00
2023-02-16T13:27:24.716Z,18.67
2023-02-16T13:32:32.227Z,20.23
2023-02-16T13:37:45.884Z,17.15
2023-02-16T13:42:47.305Z,17.75
2023-02-16T13:47:51.984Z,18.23
2023-02-16T13:52:56.686Z,19.92
2023-02-16T13:58:29.872Z,17.15
2023-02-16T14:03:38.060Z,19.65
2023-02-16T14:08:39.723Z,19.17
2023-02-16T14:13:41.261Z,18.70
2023-02-16T14:18:55.288Z,18.33
2023-02-16T14:23:59.052Z,17.70
2023-02-16T14:29:17.501Z,18.65
2023-02-16T14:34:31.313Z,17.55
2023-02-16T14:39:34.967Z,16.23
2023-02-16T14:44:53.605Z,14.32
2023-02-16T14:50:15.837Z,16.55
2023-02-16T14:55:43.390Z,20.33
2023-02-16T15:01:08.544Z,16.67
2023-02-16T15:06:18.860Z,20.50
2023-02-16T15:11:27.791Z,17.50
2023-02-16T15:16:31.768Z,20.15
2023-02-16T15:21:33.349Z,16.98
2023-02-16T15:26:35.869Z,20.20
2023-02-16T15:31:38.261Z,18.17
2023-02-16T15:36:42.544Z,16.10
2023-02-16T15:41:48.286Z,17.23
2023-02-16T15:46:49.737Z,17.33
2023-02-16T15:51:51.777Z,18.38
2023-02-16T15:56:59.705Z,16.17
2023-02-16T16:02:10.581Z,14.63
2023-02-16T16:07:16.121Z,21.25
2023-02-16T16:12:19.426Z,16.60
2023-02-16T16:17:27.906Z,16.17
2023-02-16T16:22:59.705Z,15.50
2023-02-16T16:28:06.350Z,13.30
2023-02-16T16:33:13.882Z,16.60
2023-02-16T16:38:25.230Z,19.00
2023-02-16T16:43:34.876Z,18.20
2023-02-16T16:48:37.148Z,17.67
2023-02-16T16:54:04.142Z,16.27
2023-02-16T16:59:06.574Z,13.68
2023-02-16T17:04:08.151Z,15.30
2023-02-16T17:09:09.811Z,18.92
2023-02-16T17:14:17.238Z,16.88
2023-02-16T17:19:21.496Z,15.70
2023-02-16T17:24:23.154Z,15.57
2023-02-16T17:29:24.711Z,13.90
2023-02-16T17:34:29.249Z,13.30
2023-02-16T17:39:30.990Z,12.15
2023-02-16T17:44:32.395Z,15.18
2023-02-16T17:49:33.860Z,16.42
2023-02-16T17:54:35.430Z,14.60
2023-02-16T17:59:36.980Z,15.45
2023-02-16T18:04:41.050Z,10.32
2023-02-16T18:09:42.705Z,12.07
2023-02-16T18:14:44.157Z,11.43
2023-02-16T18:19:45.611Z,10.73
2023-02-16T18:24:47.053Z,12.27
2023-02-16T18:29:48.613Z,11.63
2023-02-16T18:34:50.156Z,12.07
2023-02-16T18:39:51.606Z,11.07
2023-02-16T18:44:53.073Z,10.57
2023-02-16T18:49:56.094Z,11.98
2023-02-16T18:54:57.533Z,12.60
2023-02-16T18:59:59.342Z,13.00
2023-02-16T19:05:01.182Z,15.20
2023-02-16T19:10:04.840Z,14.85
2023-02-16T19:15:09.502Z,15.45
2023-02-16T19:20:14.416Z,14.95
2023-02-16T19:25:16.185Z,17.67
2023-02-16T19:30:20.563Z,17.50
2023-02-16T19:35:22.641Z,17.77
2023-02-16T19:40:24.073Z,14.85
2023-02-16T19:45:25.554Z,16.40
2023-02-16T19:50:27.010Z,20.05
2023-02-16T19:55:28.444Z,19.75
2023-02-16T20:00:30.018Z,22.33
2023-02-16T20:05:32.271Z,21.48
2023-02-16T20:10:34.318Z,21.57
2023-02-16T20:15:36.320Z,21.33
2023-02-16T20:20:37.731Z,20.48
2023-02-16T20:25:39.984Z,19.23
2023-02-16T20:30:42.282Z,19.77
2023-02-16T20:35:43.852Z,18.42
2023-02-16T20:40:45.478Z,23.40
2023-02-16T20:45:47.592Z,19.20
2023-02-16T20:51:08.587Z,21.43
2023-02-16T20:56:15.785Z,18.67
2023-02-16T21:01:27.946Z,21.90
2023-02-16T21:06:29.639Z,17.30
2023-02-16T21:11:31.748Z,20.27
2023-02-16T21:16:33.547Z,15.93
2023-02-16T21:21:35.062Z,20.58
2023-02-16T21:26:36.562Z,18.48
2023-02-16T21:31:38.307Z,22.38
2023-02-16T21:36:39.912Z,16.45
2023-02-16T21:41:41.424Z,16.25
2023-02-16T21:46:45.192Z,15.68
2023-02-16T21:51:47.989Z,17.10
2023-02-16T21:56:50.216Z,16.77
2023-02-16T22:01:51.860Z,14.43
2023-02-16T22:06:54.600Z,15.60
2023-02-16T22:11:56.201Z,15.65
2023-02-16T22:16:57.607Z,14.55
2023-02-16T22:21:59.112Z,14.60
2023-02-16T22:27:00.566Z,14.38
2023-02-16T22:32:02.056Z,13.32
2023-02-16T22:37:03.522Z,13.48
2023-02-16T22:42:04.965Z,15.65
2023-02-16T22:47:06.406Z,13.52
2023-02-16T22:52:08.523Z,13.73
2023-02-16T22:57:10.133Z,14.17
2023-02-16T23:02:11.606Z,14.27
2023-02-16T23:07:13.120Z,15.23
2023-02-16T23:12:16.264Z,13.38
2023-02-16T23:17:17.734Z,13.65
2023-02-16T23:22:19.133Z,12.00
2023-02-16T23:27:20.528Z,12.90
2023-02-16T23:32:22.369Z,14.70
2023-02-16T23:37:23.777Z,16.30
2023-02-16T23:42:25.491Z,15.30
2023-02-16T23:47:27.010Z,12.13
2023-02-16T23:52:28.410Z,14.82
2023-02-16T23:57:29.861Z,15.32
